sensor_id;sensor_type;location;lat;lon;timestamp;P1;durP1;ratioP1;P2;durP2;ratioP2
76795;SDS011;65745;50.278;18.192;2023-06-22T00:00:28;13.90;;;11.00;;
76795;SDS011;65745;50.278;18.192;2023-06-22T00:03:21;14.00;;;10.90;;
76795;SDS011;65745;50.278;18.192;2023-06-22T00:05:54;15.90;;;10.60;;
76795;SDS011;65745;50.278;18.192;2023-06-22T00:08:27;15.70;;;11.80;;
76795;SDS011;65745;50.278;18.192;2023-06-22T00:10:59;15.30;;;10.80;;
76795;SDS011;65745;50.278;18.192;2023-06-22T00:13:31;20.00;;;11.20;;
76795;SDS011;65745;50.278;18.192;2023-06-22T00:16:04;14.70;;;11.10;;
76795;SDS011;65745;50.278;18.192;2023-06-22T00:18:36;12.80;;;10.30;;
76795;SDS011;65745;50.278;18.192;2023-06-22T00:21:09;15.80;;;11.30;;
76795;SDS011;65745;50.278;18.192;2023-06-22T00:23:42;19.20;;;11.20;;
76795;SDS011;65745;50.278;18.192;2023-06-22T00:26:14;15.80;;;11.50;;
76795;SDS011;65745;50.278;18.192;2023-06-22T00:28:47;14.70;;;11.60;;
76795;SDS011;65745;50.278;18.192;2023-06-22T00:31:19;18.00;;;11.40;;
76795;SDS011;65745;50.278;18.192;2023-06-22T00:33:52;15.00;;;11.30;;
76795;SDS011;65745;50.278;18.192;2023-06-22T00:36:24;12.60;;;11.40;;
76795;SDS011;65745;50.278;18.192;2023-06-22T00:38:56;14.20;;;11.10;;
76795;SDS011;65745;50.278;18.192;2023-06-22T00:41:30;17.30;;;11.20;;
76795;SDS011;65745;50.278;18.192;2023-06-22T00:44:03;14.10;;;10.90;;
76795;SDS011;65745;50.278;18.192;2023-06-22T00:46:37;17.00;;;11.00;;
76795;SDS011;65745;50.278;18.192;2023-06-22T00:49:10;19.80;;;11.70;;
76795;SDS011;65745;50.278;18.192;2023-06-22T00:51:43;15.90;;;11.50;;
76795;SDS011;65745;50.278;18.192;2023-06-22T00:54:17;17.40;;;11.80;;
76795;SDS011;65745;50.278;18.192;2023-06-22T00:56:55;19.50;;;11.60;;
76795;SDS011;65745;50.278;18.192;2023-06-22T00:59:30;16.20;;;11.20;;
76795;SDS011;65745;50.278;18.192;2023-06-22T01:02:04;18.70;;;10.60;;
76795;SDS011;65745;50.278;18.192;2023-06-22T01:04:37;17.60;;;10.50;;
76795;SDS011;65745;50.278;18.192;2023-06-22T01:07:13;16.30;;;10.40;;
76795;SDS011;65745;50.278;18.192;2023-06-22T01:09:54;14.10;;;10.60;;
76795;SDS011;65745;50.278;18.192;2023-06-22T01:12:34;18.10;;;11.00;;
76795;SDS011;65745;50.278;18.192;2023-06-22T01:15:10;15.80;;;10.80;;
76795;SDS011;65745;50.278;18.192;2023-06-22T01:17:45;12.80;;;10.00;;
76795;SDS011;65745;50.278;18.192;2023-06-22T01:20:20;14.10;;;10.10;;
76795;SDS011;65745;50.278;18.192;2023-06-22T01:23:07;16.00;;;10.30;;
76795;SDS011;65745;50.278;18.192;2023-06-22T01:25:53;13.90;;;10.80;;
76795;SDS011;65745;50.278;18.192;2023-06-22T01:28:43;18.00;;;10.50;;
76795;SDS011;65745;50.278;18.192;2023-06-22T01:31:18;14.30;;;11.20;;
76795;SDS011;65745;50.278;18.192;2023-06-22T01:33:55;16.10;;;12.30;;
76795;SDS011;65745;50.278;18.192;2023-06-22T01:36:31;16.70;;;10.80;;
76795;SDS011;65745;50.278;18.192;2023-06-22T01:39:04;16.90;;;10.80;;
76795;SDS011;65745;50.278;18.192;2023-06-22T01:41:37;18.00;;;10.00;;
76795;SDS011;65745;50.278;18.192;2023-06-22T01:44:12;19.30;;;11.40;;
76795;SDS011;65745;50.278;18.192;2023-06-22T01:46:45;20.60;;;11.40;;
76795;SDS011;65745;50.278;18.192;2023-06-22T01:49:22;16.90;;;10.20;;
76795;SDS011;65745;50.278;18.192;2023-06-22T01:51:55;20.60;;;10.60;;
76795;SDS011;65745;50.278;18.192;2023-06-22T01:54:30;17.50;;;10.80;;
76795;SDS011;65745;50.278;18.192;2023-06-22T01:57:03;14.30;;;11.30;;
76795;SDS011;65745;50.278;18.192;2023-06-22T01:59:37;16.20;;;11.20;;
76795;SDS011;65745;50.278;18.192;2023-06-22T02:02:18;16.80;;;11.80;;
76795;SDS011;65745;50.278;18.192;2023-06-22T02:04:57;20.90;;;11.40;;
76795;SDS011;65745;50.278;18.192;2023-06-22T02:07:34;14.10;;;11.30;;
76795;SDS011;65745;50.278;18.192;2023-06-22T02:12:46;21.40;;;11.30;;
76795;SDS011;65745;50.278;18.192;2023-06-22T02:15:20;15.00;;;10.80;;
76795;SDS011;65745;50.278;18.192;2023-06-22T02:17:55;21.30;;;12.00;;
76795;SDS011;65745;50.278;18.192;2023-06-22T02:20:27;23.80;;;12.40;;
76795;SDS011;65745;50.278;18.192;2023-06-22T02:23:00;16.40;;;12.20;;
76795;SDS011;65745;50.278;18.192;2023-06-22T02:25:32;17.10;;;11.70;;
76795;SDS011;65745;50.278;18.192;2023-06-22T02:28:05;13.00;;;11.40;;
76795;SDS011;65745;50.278;18.192;2023-06-22T02:30:39;18.40;;;12.70;;
76795;SDS011;65745;50.278;18.192;2023-06-22T02:33:11;17.10;;;12.10;;
76795;SDS011;65745;50.278;18.192;2023-06-22T02:35:44;14.50;;;12.70;;
76795;SDS011;65745;50.278;18.192;2023-06-22T02:38:18;18.10;;;12.50;;
76795;SDS011;65745;50.278;18.192;2023-06-22T02:40:53;17.70;;;11.60;;
76795;SDS011;65745;50.278;18.192;2023-06-22T02:43:26;17.50;;;11.80;;
76795;SDS011;65745;50.278;18.192;2023-06-22T02:45:59;16.20;;;13.30;;
76795;SDS011;65745;50.278;18.192;2023-06-22T02:48:31;13.70;;;12.10;;
76795;SDS011;65745;50.278;18.192;2023-06-22T02:51:04;15.70;;;14.10;;
76795;SDS011;65745;50.278;18.192;2023-06-22T02:53:37;17.60;;;12.90;;
76795;SDS011;65745;50.278;18.192;2023-06-22T02:56:09;17.10;;;12.80;;
76795;SDS011;65745;50.278;18.192;2023-06-22T02:58:42;18.30;;;13.30;;
76795;SDS011;65745;50.278;18.192;2023-06-22T03:01:14;14.40;;;12.30;;
76795;SDS011;65745;50.278;18.192;2023-06-22T03:03:53;15.80;;;12.50;;
76795;SDS011;65745;50.278;18.192;2023-06-22T03:06:25;16.30;;;13.50;;
76795;SDS011;65745;50.278;18.192;2023-06-22T03:08:59;20.80;;;13.30;;
76795;SDS011;65745;50.278;18.192;2023-06-22T03:11:34;21.50;;;14.90;;
76795;SDS011;65745;50.278;18.192;2023-06-22T03:14:07;16.70;;;13.50;;
76795;SDS011;65745;50.278;18.192;2023-06-22T03:16:39;17.60;;;14.20;;
76795;SDS011;65745;50.278;18.192;2023-06-22T03:19:11;18.20;;;13.80;;
76795;SDS011;65745;50.278;18.192;2023-06-22T03:21:44;17.40;;;14.60;;
76795;SDS011;65745;50.278;18.192;2023-06-22T03:24:16;21.90;;;13.70;;
76795;SDS011;65745;50.278;18.192;2023-06-22T03:26:50;18.30;;;13.80;;
76795;SDS011;65745;50.278;18.192;2023-06-22T03:29:22;15.70;;;13.90;;
76795;SDS011;65745;50.278;18.192;2023-06-22T03:31:59;22.30;;;15.20;;
76795;SDS011;65745;50.278;18.192;2023-06-22T03:34:32;19.10;;;15.30;;
76795;SDS011;65745;50.278;18.192;2023-06-22T03:37:06;18.30;;;14.20;;
76795;SDS011;65745;50.278;18.192;2023-06-22T03:39:38;20.60;;;15.60;;
76795;SDS011;65745;50.278;18.192;2023-06-22T03:42:11;18.10;;;15.20;;
76795;SDS011;65745;50.278;18.192;2023-06-22T03:44:43;20.20;;;15.40;;
76795;SDS011;65745;50.278;18.192;2023-06-22T03:47:15;21.20;;;16.50;;
76795;SDS011;65745;50.278;18.192;2023-06-22T03:49:47;20.60;;;16.10;;
76795;SDS011;65745;50.278;18.192;2023-06-22T03:52:24;19.10;;;17.00;;
76795;SDS011;65745;50.278;18.192;2023-06-22T03:54:56;23.80;;;17.00;;
76795;SDS011;65745;50.278;18.192;2023-06-22T03:57:28;21.10;;;18.30;;
76795;SDS011;65745;50.278;18.192;2023-06-22T04:00:00;20.50;;;17.40;;
76795;SDS011;65745;50.278;18.192;2023-06-22T04:02:40;20.70;;;17.60;;
76795;SDS011;65745;50.278;18.192;2023-06-22T04:05:13;20.60;;;17.80;;
76795;SDS011;65745;50.278;18.192;2023-06-22T04:07:46;21.60;;;17.50;;
76795;SDS011;65745;50.278;18.192;2023-06-22T04:10:19;20.70;;;17.50;;
76795;SDS011;65745;50.278;18.192;2023-06-22T04:12:51;22.90;;;18.90;;
76795;SDS011;65745;50.278;18.192;2023-06-22T04:15:23;22.80;;;19.30;;
76795;SDS011;65745;50.278;18.192;2023-06-22T04:17:55;22.20;;;19.10;;
76795;SDS011;65745;50.278;18.192;2023-06-22T04:20:28;20.90;;;18.70;;
76795;SDS011;65745;50.278;18.192;2023-06-22T04:23:02;21.60;;;18.00;;
76795;SDS011;65745;50.278;18.192;2023-06-22T04:25:34;21.00;;;17.90;;
76795;SDS011;65745;50.278;18.192;2023-06-22T04:28:06;22.10;;;19.00;;
76795;SDS011;65745;50.278;18.192;2023-06-22T04:30:41;23.70;;;20.50;;
76795;SDS011;65745;50.278;18.192;2023-06-22T04:33:16;24.70;;;20.10;;
76795;SDS011;65745;50.278;18.192;2023-06-22T04:35:48;21.90;;;19.60;;
76795;SDS011;65745;50.278;18.192;2023-06-22T04:38:21;22.10;;;19.80;;
76795;SDS011;65745;50.278;18.192;2023-06-22T04:40:53;21.10;;;18.90;;
76795;SDS011;65745;50.278;18.192;2023-06-22T04:43:25;22.60;;;20.20;;
76795;SDS011;65745;50.278;18.192;2023-06-22T04:48:33;27.50;;;21.00;;
76795;SDS011;65745;50.278;18.192;2023-06-22T04:51:05;22.60;;;20.10;;
76795;SDS011;65745;50.278;18.192;2023-06-22T04:53:37;24.80;;;22.20;;
76795;SDS011;65745;50.278;18.192;2023-06-22T04:56:10;24.10;;;21.50;;
76795;SDS011;65745;50.278;18.192;2023-06-22T04:58:45;27.40;;;21.50;;
76795;SDS011;65745;50.278;18.192;2023-06-22T05:01:17;23.10;;;20.80;;
76795;SDS011;65745;50.278;18.192;2023-06-22T05:03:52;25.40;;;22.50;;
76795;SDS011;65745;50.278;18.192;2023-06-22T05:06:26;23.90;;;21.30;;
76795;SDS011;65745;50.278;18.192;2023-06-22T05:08:59;25.30;;;22.60;;
76795;SDS011;65745;50.278;18.192;2023-06-22T05:11:32;24.30;;;21.80;;
76795;SDS011;65745;50.278;18.192;2023-06-22T05:14:04;24.30;;;21.50;;
76795;SDS011;65745;50.278;18.192;2023-06-22T05:16:37;26.40;;;22.40;;
76795;SDS011;65745;50.278;18.192;2023-06-22T05:19:10;26.70;;;23.60;;
76795;SDS011;65745;50.278;18.192;2023-06-22T05:21:42;23.20;;;20.70;;
76795;SDS011;65745;50.278;18.192;2023-06-22T05:24:15;26.20;;;23.00;;
76795;SDS011;65745;50.278;18.192;2023-06-22T05:26:47;25.30;;;22.80;;
76795;SDS011;65745;50.278;18.192;2023-06-22T05:29:19;24.80;;;22.10;;
76795;SDS011;65745;50.278;18.192;2023-06-22T05:31:52;26.40;;;22.40;;
76795;SDS011;65745;50.278;18.192;2023-06-22T05:34:25;24.60;;;21.90;;
76795;SDS011;65745;50.278;18.192;2023-06-22T05:36:58;22.60;;;20.20;;
76795;SDS011;65745;50.278;18.192;2023-06-22T05:39:30;23.70;;;21.20;;
76795;SDS011;65745;50.278;18.192;2023-06-22T05:42:05;23.50;;;21.10;;
76795;SDS011;65745;50.278;18.192;2023-06-22T05:44:39;22.00;;;19.80;;
76795;SDS011;65745;50.278;18.192;2023-06-22T05:47:11;24.40;;;21.40;;
76795;SDS011;65745;50.278;18.192;2023-06-22T05:49:43;24.20;;;21.60;;
76795;SDS011;65745;50.278;18.192;2023-06-22T05:52:16;23.80;;;21.20;;
76795;SDS011;65745;50.278;18.192;2023-06-22T05:54:48;23.40;;;20.70;;
76795;SDS011;65745;50.278;18.192;2023-06-22T05:57:21;23.80;;;21.40;;
76795;SDS011;65745;50.278;18.192;2023-06-22T05:59:53;23.80;;;21.30;;
76795;SDS011;65745;50.278;18.192;2023-06-22T06:02:25;21.70;;;19.50;;
76795;SDS011;65745;50.278;18.192;2023-06-22T06:04:58;22.60;;;19.50;;
76795;SDS011;65745;50.278;18.192;2023-06-22T06:07:32;20.80;;;18.70;;
76795;SDS011;65745;50.278;18.192;2023-06-22T06:10:05;19.40;;;17.50;;
76795;SDS011;65745;50.278;18.192;2023-06-22T06:12:39;20.40;;;18.40;;
76795;SDS011;65745;50.278;18.192;2023-06-22T06:15:11;20.80;;;18.80;;
76795;SDS011;65745;50.278;18.192;2023-06-22T06:17:47;19.60;;;17.50;;
76795;SDS011;65745;50.278;18.192;2023-06-22T06:20:20;17.30;;;15.50;;
76795;SDS011;65745;50.278;18.192;2023-06-22T06:22:54;17.00;;;15.30;;
76795;SDS011;65745;50.278;18.192;2023-06-22T06:25:27;16.10;;;14.50;;
76795;SDS011;65745;50.278;18.192;2023-06-22T06:27:59;15.90;;;14.30;;
76795;SDS011;65745;50.278;18.192;2023-06-22T06:30:32;16.60;;;15.00;;
76795;SDS011;65745;50.278;18.192;2023-06-22T06:33:06;15.30;;;13.80;;
76795;SDS011;65745;50.278;18.192;2023-06-22T06:35:38;14.70;;;13.00;;
76795;SDS011;65745;50.278;18.192;2023-06-22T06:38:11;15.00;;;13.50;;
76795;SDS011;65745;50.278;18.192;2023-06-22T06:40:43;14.60;;;13.10;;
76795;SDS011;65745;50.278;18.192;2023-06-22T06:43:18;15.00;;;13.50;;
76795;SDS011;65745;50.278;18.192;2023-06-22T06:45:50;16.50;;;14.90;;
76795;SDS011;65745;50.278;18.192;2023-06-22T06:48:23;14.80;;;13.30;;
76795;SDS011;65745;50.278;18.192;2023-06-22T06:50:55;14.70;;;12.90;;
76795;SDS011;65745;50.278;18.192;2023-06-22T06:53:27;16.00;;;14.30;;
76795;SDS011;65745;50.278;18.192;2023-06-22T06:55:59;13.80;;;12.40;;
76795;SDS011;65745;50.278;18.192;2023-06-22T06:58:32;13.80;;;12.40;;
76795;SDS011;65745;50.278;18.192;2023-06-22T07:01:05;14.20;;;12.80;;
76795;SDS011;65745;50.278;18.192;2023-06-22T07:03:38;14.30;;;12.80;;
76795;SDS011;65745;50.278;18.192;2023-06-22T07:06:10;14.70;;;13.20;;
76795;SDS011;65745;50.278;18.192;2023-06-22T07:08:43;15.10;;;13.70;;
76795;SDS011;65745;50.278;18.192;2023-06-22T07:11:15;14.70;;;13.30;;
76795;SDS011;65745;50.278;18.192;2023-06-22T07:13:48;16.10;;;14.50;;
76795;SDS011;65745;50.278;18.192;2023-06-22T07:16:20;14.50;;;13.10;;
76795;SDS011;65745;50.278;18.192;2023-06-22T07:18:54;15.70;;;14.10;;
76795;SDS011;65745;50.278;18.192;2023-06-22T07:21:26;15.40;;;13.90;;
76795;SDS011;65745;50.278;18.192;2023-06-22T07:23:58;15.50;;;14.00;;
76795;SDS011;65745;50.278;18.192;2023-06-22T07:26:31;14.70;;;13.30;;
76795;SDS011;65745;50.278;18.192;2023-06-22T07:29:03;14.20;;;12.90;;
76795;SDS011;65745;50.278;18.192;2023-06-22T07:31:36;13.80;;;12.40;;
76795;SDS011;65745;50.278;18.192;2023-06-22T07:34:10;15.00;;;13.60;;
76795;SDS011;65745;50.278;18.192;2023-06-22T07:36:42;16.20;;;14.70;;
76795;SDS011;65745;50.278;18.192;2023-06-22T07:39:15;15.00;;;13.70;;
76795;SDS011;65745;50.278;18.192;2023-06-22T07:41:48;15.30;;;13.80;;
76795;SDS011;65745;50.278;18.192;2023-06-22T07:44:20;15.20;;;13.70;;
76795;SDS011;65745;50.278;18.192;2023-06-22T07:46:52;14.60;;;13.30;;
76795;SDS011;65745;50.278;18.192;2023-06-22T07:49:24;14.70;;;13.30;;
76795;SDS011;65745;50.278;18.192;2023-06-22T07:51:58;14.90;;;13.50;;
76795;SDS011;65745;50.278;18.192;2023-06-22T07:54:34;13.00;;;11.80;;
76795;SDS011;65745;50.278;18.192;2023-06-22T07:57:07;14.30;;;13.00;;
76795;SDS011;65745;50.278;18.192;2023-06-22T07:59:39;14.10;;;12.80;;
76795;SDS011;65745;50.278;18.192;2023-06-22T08:02:11;14.50;;;13.10;;
76795;SDS011;65745;50.278;18.192;2023-06-22T08:04:44;15.10;;;13.70;;
76795;SDS011;65745;50.278;18.192;2023-06-22T08:07:16;14.40;;;13.10;;
76795;SDS011;65745;50.278;18.192;2023-06-22T08:09:49;15.70;;;14.10;;
76795;SDS011;65745;50.278;18.192;2023-06-22T08:12:21;14.90;;;13.60;;
76795;SDS011;65745;50.278;18.192;2023-06-22T08:14:54;15.10;;;13.70;;
76795;SDS011;65745;50.278;18.192;2023-06-22T08:17:26;15.20;;;13.90;;
76795;SDS011;65745;50.278;18.192;2023-06-22T08:20:00;14.20;;;12.70;;
76795;SDS011;65745;50.278;18.192;2023-06-22T08:22:38;14.40;;;13.10;;
76795;SDS011;65745;50.278;18.192;2023-06-22T08:25:11;14.50;;;13.20;;
76795;SDS011;65745;50.278;18.192;2023-06-22T08:27:46;13.40;;;12.10;;
76795;SDS011;65745;50.278;18.192;2023-06-22T08:30:18;14.00;;;12.60;;
76795;SDS011;65745;50.278;18.192;2023-06-22T08:32:51;13.60;;;12.40;;
76795;SDS011;65745;50.278;18.192;2023-06-22T08:35:24;13.60;;;12.40;;
76795;SDS011;65745;50.278;18.192;2023-06-22T08:37:57;13.90;;;12.70;;
76795;SDS011;65745;50.278;18.192;2023-06-22T08:40:31;14.60;;;13.20;;
76795;SDS011;65745;50.278;18.192;2023-06-22T08:43:03;13.90;;;12.60;;
76795;SDS011;65745;50.278;18.192;2023-06-22T08:45:36;13.30;;;12.10;;
76795;SDS011;65745;50.278;18.192;2023-06-22T08:48:09;14.30;;;12.90;;
76795;SDS011;65745;50.278;18.192;2023-06-22T08:50:42;13.90;;;12.50;;
76795;SDS011;65745;50.278;18.192;2023-06-22T08:53:14;14.10;;;12.90;;
76795;SDS011;65745;50.278;18.192;2023-06-22T08:55:46;12.40;;;11.20;;
76795;SDS011;65745;50.278;18.192;2023-06-22T08:58:20;12.20;;;11.10;;
76795;SDS011;65745;50.278;18.192;2023-06-22T09:00:53;11.50;;;10.40;;
76795;SDS011;65745;50.278;18.192;2023-06-22T09:03:25;11.50;;;10.50;;
76795;SDS011;65745;50.278;18.192;2023-06-22T09:05:58;12.00;;;10.90;;
76795;SDS011;65745;50.278;18.192;2023-06-22T09:08:31;11.00;;;10.00;;
76795;SDS011;65745;50.278;18.192;2023-06-22T09:11:03;11.90;;;10.90;;
76795;SDS011;65745;50.278;18.192;2023-06-22T09:13:36;13.40;;;12.30;;
76795;SDS011;65745;50.278;18.192;2023-06-22T09:16:08;12.10;;;10.90;;
76795;SDS011;65745;50.278;18.192;2023-06-22T09:18:41;12.90;;;11.70;;
76795;SDS011;65745;50.278;18.192;2023-06-22T09:21:17;12.30;;;10.70;;
76795;SDS011;65745;50.278;18.192;2023-06-22T09:23:49;10.70;;;9.70;;
76795;SDS011;65745;50.278;18.192;2023-06-22T09:26:22;10.80;;;9.90;;
76795;SDS011;65745;50.278;18.192;2023-06-22T09:28:54;12.30;;;11.10;;
76795;SDS011;65745;50.278;18.192;2023-06-22T09:31:27;11.60;;;10.60;;
76795;SDS011;65745;50.278;18.192;2023-06-22T09:34:00;11.50;;;10.40;;
76795;SDS011;65745;50.278;18.192;2023-06-22T09:36:32;9.80;;;8.90;;
76795;SDS011;65745;50.278;18.192;2023-06-22T09:39:04;9.60;;;8.70;;
76795;SDS011;65745;50.278;18.192;2023-06-22T09:41:37;10.00;;;9.00;;
76795;SDS011;65745;50.278;18.192;2023-06-22T09:44:09;11.00;;;10.10;;
76795;SDS011;65745;50.278;18.192;2023-06-22T09:46:41;9.30;;;8.50;;
76795;SDS011;65745;50.278;18.192;2023-06-22T09:49:13;10.40;;;9.40;;
76795;SDS011;65745;50.278;18.192;2023-06-22T09:51:46;9.70;;;8.90;;
76795;SDS011;65745;50.278;18.192;2023-06-22T09:54:18;10.10;;;9.20;;
76795;SDS011;65745;50.278;18.192;2023-06-22T09:56:50;9.90;;;9.10;;
76795;SDS011;65745;50.278;18.192;2023-06-22T09:59:23;9.90;;;9.10;;
76795;SDS011;65745;50.278;18.192;2023-06-22T10:01:58;9.70;;;8.70;;
76795;SDS011;65745;50.278;18.192;2023-06-22T10:04:31;9.40;;;8.50;;
76795;SDS011;65745;50.278;18.192;2023-06-22T10:07:04;9.90;;;9.00;;
76795;SDS011;65745;50.278;18.192;2023-06-22T10:09:37;10.70;;;9.70;;
76795;SDS011;65745;50.278;18.192;2023-06-22T10:12:09;9.90;;;9.00;;
76795;SDS011;65745;50.278;18.192;2023-06-22T10:14:42;9.80;;;8.80;;
76795;SDS011;65745;50.278;18.192;2023-06-22T10:17:15;9.10;;;8.20;;
76795;SDS011;65745;50.278;18.192;2023-06-22T10:19:47;19.70;;;10.80;;
76795;SDS011;65745;50.278;18.192;2023-06-22T10:22:19;11.60;;;9.40;;
76795;SDS011;65745;50.278;18.192;2023-06-22T10:24:52;9.90;;;9.00;;
76795;SDS011;65745;50.278;18.192;2023-06-22T10:27:24;9.40;;;8.60;;
76795;SDS011;65745;50.278;18.192;2023-06-22T10:29:56;9.40;;;8.50;;
76795;SDS011;65745;50.278;18.192;2023-06-22T10:32:28;10.10;;;8.40;;
76795;SDS011;65745;50.278;18.192;2023-06-22T10:35:01;9.30;;;8.50;;
76795;SDS011;65745;50.278;18.192;2023-06-22T10:37:33;8.90;;;8.10;;
76795;SDS011;65745;50.278;18.192;2023-06-22T10:40:19;9.30;;;8.30;;
76795;SDS011;65745;50.278;18.192;2023-06-22T10:42:52;9.50;;;8.40;;
76795;SDS011;65745;50.278;18.192;2023-06-22T10:45:24;9.50;;;8.60;;
76795;SDS011;65745;50.278;18.192;2023-06-22T10:47:58;9.00;;;8.30;;
76795;SDS011;65745;50.278;18.192;2023-06-22T10:50:31;9.40;;;8.60;;
76795;SDS011;65745;50.278;18.192;2023-06-22T10:53:03;9.10;;;8.20;;
76795;SDS011;65745;50.278;18.192;2023-06-22T10:55:35;8.00;;;7.40;;
76795;SDS011;65745;50.278;18.192;2023-06-22T10:58:24;8.00;;;7.30;;
76795;SDS011;65745;50.278;18.192;2023-06-22T11:00:56;8.70;;;7.90;;
76795;SDS011;65745;50.278;18.192;2023-06-22T11:03:29;8.70;;;8.00;;
76795;SDS011;65745;50.278;18.192;2023-06-22T11:06:01;9.30;;;8.50;;
76795;SDS011;65745;50.278;18.192;2023-06-22T11:08:34;9.30;;;8.40;;
76795;SDS011;65745;50.278;18.192;2023-06-22T11:11:08;8.60;;;7.90;;
76795;SDS011;65745;50.278;18.192;2023-06-22T11:13:40;9.20;;;8.40;;
76795;SDS011;65745;50.278;18.192;2023-06-22T11:16:12;9.30;;;8.40;;
76795;SDS011;65745;50.278;18.192;2023-06-22T11:18:45;9.50;;;8.20;;
76795;SDS011;65745;50.278;18.192;2023-06-22T11:21:17;8.60;;;7.80;;
76795;SDS011;65745;50.278;18.192;2023-06-22T11:23:51;8.40;;;7.60;;
76795;SDS011;65745;50.278;18.192;2023-06-22T11:26:23;8.60;;;7.80;;
76795;SDS011;65745;50.278;18.192;2023-06-22T11:28:56;8.70;;;8.00;;
76795;SDS011;65745;50.278;18.192;2023-06-22T11:31:30;8.50;;;7.80;;
76795;SDS011;65745;50.278;18.192;2023-06-22T11:34:03;8.40;;;7.70;;
76795;SDS011;65745;50.278;18.192;2023-06-22T11:36:35;8.50;;;7.70;;
76795;SDS011;65745;50.278;18.192;2023-06-22T11:39:07;9.00;;;8.30;;
76795;SDS011;65745;50.278;18.192;2023-06-22T11:41:40;8.90;;;8.20;;
76795;SDS011;65745;50.278;18.192;2023-06-22T11:44:12;9.00;;;8.30;;
76795;SDS011;65745;50.278;18.192;2023-06-22T11:46:45;8.50;;;7.70;;
76795;SDS011;65745;50.278;18.192;2023-06-22T11:49:17;8.60;;;7.80;;
76795;SDS011;65745;50.278;18.192;2023-06-22T11:51:49;8.50;;;7.80;;
76795;SDS011;65745;50.278;18.192;2023-06-22T11:54:22;8.80;;;8.10;;
76795;SDS011;65745;50.278;18.192;2023-06-22T11:56:54;8.70;;;8.00;;
76795;SDS011;65745;50.278;18.192;2023-06-22T11:59:27;8.20;;;7.50;;
76795;SDS011;65745;50.278;18.192;2023-06-22T12:01:59;8.70;;;8.00;;
76795;SDS011;65745;50.278;18.192;2023-06-22T12:04:31;8.80;;;8.00;;
76795;SDS011;65745;50.278;18.192;2023-06-22T12:07:04;8.20;;;7.50;;
76795;SDS011;65745;50.278;18.192;2023-06-22T12:09:36;9.20;;;8.40;;
76795;SDS011;65745;50.278;18.192;2023-06-22T12:12:09;8.10;;;7.40;;
76795;SDS011;65745;50.278;18.192;2023-06-22T12:14:42;8.50;;;7.80;;
76795;SDS011;65745;50.278;18.192;2023-06-22T12:17:14;9.50;;;8.70;;
76795;SDS011;65745;50.278;18.192;2023-06-22T12:19:46;8.40;;;7.70;;
76795;SDS011;65745;50.278;18.192;2023-06-22T12:22:19;8.00;;;7.30;;
76795;SDS011;65745;50.278;18.192;2023-06-22T12:24:51;8.40;;;7.70;;
76795;SDS011;65745;50.278;18.192;2023-06-22T12:27:24;7.90;;;7.20;;
76795;SDS011;65745;50.278;18.192;2023-06-22T12:29:57;7.90;;;7.20;;
76795;SDS011;65745;50.278;18.192;2023-06-22T12:32:29;8.40;;;7.50;;
76795;SDS011;65745;50.278;18.192;2023-06-22T12:35:02;8.10;;;7.40;;
76795;SDS011;65745;50.278;18.192;2023-06-22T12:40:08;8.10;;;7.30;;
76795;SDS011;65745;50.278;18.192;2023-06-22T12:42:41;8.10;;;7.40;;
76795;SDS011;65745;50.278;18.192;2023-06-22T12:45:15;9.60;;;8.70;;
76795;SDS011;65745;50.278;18.192;2023-06-22T12:47:47;8.00;;;7.30;;
76795;SDS011;65745;50.278;18.192;2023-06-22T12:50:20;8.00;;;7.40;;
76795;SDS011;65745;50.278;18.192;2023-06-22T12:52:52;8.00;;;7.40;;
76795;SDS011;65745;50.278;18.192;2023-06-22T12:55:24;8.90;;;8.00;;
76795;SDS011;65745;50.278;18.192;2023-06-22T12:57:56;8.50;;;7.80;;
76795;SDS011;65745;50.278;18.192;2023-06-22T13:00:29;8.40;;;7.40;;
76795;SDS011;65745;50.278;18.192;2023-06-22T13:03:01;8.30;;;7.50;;
76795;SDS011;65745;50.278;18.192;2023-06-22T13:05:34;8.30;;;7.60;;
76795;SDS011;65745;50.278;18.192;2023-06-22T13:08:07;8.20;;;7.40;;
76795;SDS011;65745;50.278;18.192;2023-06-22T13:10:41;8.50;;;7.80;;
76795;SDS011;65745;50.278;18.192;2023-06-22T13:13:13;8.40;;;7.70;;
76795;SDS011;65745;50.278;18.192;2023-06-22T13:15:46;8.40;;;7.70;;
76795;SDS011;65745;50.278;18.192;2023-06-22T13:18:18;8.50;;;7.60;;
76795;SDS011;65745;50.278;18.192;2023-06-22T13:20:50;8.70;;;7.90;;
76795;SDS011;65745;50.278;18.192;2023-06-22T13:23:23;8.50;;;7.80;;
76795;SDS011;65745;50.278;18.192;2023-06-22T13:25:56;9.00;;;8.20;;
76795;SDS011;65745;50.278;18.192;2023-06-22T13:28:29;8.20;;;7.40;;
76795;SDS011;65745;50.278;18.192;2023-06-22T13:31:02;8.80;;;8.10;;
76795;SDS011;65745;50.278;18.192;2023-06-22T13:33:34;8.10;;;7.30;;
76795;SDS011;65745;50.278;18.192;2023-06-22T13:36:08;8.60;;;7.80;;
76795;SDS011;65745;50.278;18.192;2023-06-22T13:38:40;8.80;;;8.00;;
76795;SDS011;65745;50.278;18.192;2023-06-22T13:41:12;8.30;;;7.60;;
76795;SDS011;65745;50.278;18.192;2023-06-22T13:43:44;8.10;;;7.40;;
76795;SDS011;65745;50.278;18.192;2023-06-22T13:46:17;7.70;;;7.00;;
76795;SDS011;65745;50.278;18.192;2023-06-22T13:48:49;7.70;;;7.00;;
76795;SDS011;65745;50.278;18.192;2023-06-22T13:51:26;8.40;;;7.60;;
76795;SDS011;65745;50.278;18.192;2023-06-22T13:53:59;8.20;;;7.50;;
76795;SDS011;65745;50.278;18.192;2023-06-22T13:56:33;8.30;;;7.60;;
76795;SDS011;65745;50.278;18.192;2023-06-22T13:59:05;7.90;;;7.20;;
76795;SDS011;65745;50.278;18.192;2023-06-22T14:01:39;8.20;;;7.40;;
76795;SDS011;65745;50.278;18.192;2023-06-22T14:04:12;8.60;;;7.80;;
76795;SDS011;65745;50.278;18.192;2023-06-22T14:06:45;8.30;;;7.60;;
76795;SDS011;65745;50.278;18.192;2023-06-22T14:09:17;8.30;;;7.60;;
76795;SDS011;65745;50.278;18.192;2023-06-22T14:11:50;8.40;;;7.50;;
76795;SDS011;65745;50.278;18.192;2023-06-22T14:14:22;9.00;;;8.10;;
76795;SDS011;65745;50.278;18.192;2023-06-22T14:16:56;8.50;;;7.70;;
76795;SDS011;65745;50.278;18.192;2023-06-22T14:19:28;8.50;;;7.80;;
76795;SDS011;65745;50.278;18.192;2023-06-22T14:22:01;7.80;;;7.20;;
76795;SDS011;65745;50.278;18.192;2023-06-22T14:24:34;8.00;;;7.40;;
76795;SDS011;65745;50.278;18.192;2023-06-22T14:27:07;8.10;;;7.30;;
76795;SDS011;65745;50.278;18.192;2023-06-22T14:29:39;8.20;;;7.50;;
76795;SDS011;65745;50.278;18.192;2023-06-22T14:32:11;8.50;;;7.80;;
76795;SDS011;65745;50.278;18.192;2023-06-22T14:34:43;8.80;;;8.00;;
76795;SDS011;65745;50.278;18.192;2023-06-22T14:37:15;7.60;;;6.90;;
76795;SDS011;65745;50.278;18.192;2023-06-22T14:39:48;8.10;;;7.40;;
76795;SDS011;65745;50.278;18.192;2023-06-22T14:42:20;8.20;;;7.50;;
76795;SDS011;65745;50.278;18.192;2023-06-22T14:44:52;8.40;;;7.70;;
76795;SDS011;65745;50.278;18.192;2023-06-22T14:47:24;7.50;;;6.40;;
76795;SDS011;65745;50.278;18.192;2023-06-22T14:49:57;8.50;;;7.70;;
76795;SDS011;65745;50.278;18.192;2023-06-22T14:52:30;7.80;;;7.20;;
76795;SDS011;65745;50.278;18.192;2023-06-22T14:55:03;7.50;;;6.90;;
76795;SDS011;65745;50.278;18.192;2023-06-22T14:57:36;7.70;;;7.00;;
76795;SDS011;65745;50.278;18.192;2023-06-22T15:00:09;7.50;;;6.90;;